createdAt,value
2022-11-15T00:01:17.998Z,101842.31
2022-11-15T00:04:05.694Z,101851.03
2022-11-15T00:06:51.936Z,101837.97
2022-11-15T00:09:42.168Z,101840.56
2022-11-15T00:12:36.348Z,101844.03
2022-11-15T00:15:23.228Z,101851.03
2022-11-15T00:18:16.657Z,101848.44
2022-11-15T00:21:10.675Z,101842.34
2022-11-15T00:23:57.242Z,101843.25
2022-11-15T00:26:43.635Z,101848.50
2022-11-15T00:29:30.305Z,101844.06
2022-11-15T00:32:16.635Z,101851.13
2022-11-15T00:35:02.865Z,101859.84
2022-11-15T00:37:50.077Z,101853.72
2022-11-15T00:40:36.496Z,101862.41
2022-11-15T00:43:22.735Z,101857.22
2022-11-15T00:46:10.649Z,101847.66
2022-11-15T00:48:57.260Z,101845.94
2022-11-15T00:51:43.387Z,101848.56
2022-11-15T00:54:29.930Z,101849.44
2022-11-15T00:57:17.975Z,101840.75
2022-11-15T01:00:05.205Z,101845.09
2022-11-15T01:02:53.592Z,101841.63
2022-11-15T01:05:40.263Z,101836.41
2022-11-15T01:08:26.525Z,101842.50
2022-11-15T01:11:13.865Z,101833.81
2022-11-15T01:13:59.920Z,101825.16
2022-11-15T01:16:46.149Z,101828.63
2022-11-15T01:19:33.465Z,101826.88
2022-11-15T01:22:21.512Z,101829.50
2022-11-15T01:25:07.713Z,101826.03
2022-11-15T01:27:54.013Z,101835.63
2022-11-15T01:30:40.693Z,101833.03
2022-11-15T01:33:27.587Z,101832.13
2022-11-15T01:36:19.835Z,101831.28
2022-11-15T01:39:06.226Z,101827.81
2022-11-15T01:41:52.645Z,101826.09
2022-11-15T01:44:47.712Z,101820.00
2022-11-15T01:47:41.695Z,101832.22
2022-11-15T01:50:33.214Z,101833.97
2022-11-15T01:53:24.589Z,101846.97
2022-11-15T01:56:15.421Z,101837.41
2022-11-15T01:59:05.154Z,101847.88
2022-11-15T02:01:53.243Z,101842.66
2022-11-15T02:04:46.538Z,101854.84
2022-11-15T02:07:37.073Z,101855.72
2022-11-15T02:10:25.657Z,101862.69
2022-11-15T02:13:12.015Z,101862.69
2022-11-15T02:16:21.584Z,101864.44
2022-11-15T02:19:32.714Z,101864.44
2022-11-15T02:22:44.142Z,101863.59
2022-11-15T02:25:48.806Z,101863.59
2022-11-15T02:28:49.750Z,101858.38
2022-11-15T02:32:01.505Z,101857.50
2022-11-15T02:35:12.888Z,101851.41
2022-11-15T02:38:41.072Z,101854.88
2022-11-15T02:41:47.923Z,101854.03
2022-11-15T02:44:41.663Z,101854.00
2022-11-15T02:47:31.297Z,101845.28
2022-11-15T02:50:18.992Z,101844.41
2022-11-15T02:53:05.593Z,101837.44
2022-11-15T02:55:53.124Z,101839.19
2022-11-15T02:59:02.108Z,101847.91
2022-11-15T03:02:23.861Z,101859.25
2022-11-15T03:05:31.575Z,101859.28
2022-11-15T03:08:30.317Z,101858.44
2022-11-15T03:11:19.977Z,101859.28
2022-11-15T03:14:09.188Z,101865.41
2022-11-15T03:17:11.637Z,101867.97
2022-11-15T03:20:01.673Z,101872.34
2022-11-15T03:22:50.529Z,101869.72
2022-11-15T03:25:46.113Z,101876.72
2022-11-15T03:28:37.567Z,101864.53
2022-11-15T03:31:49.767Z,101865.41
2022-11-15T03:35:09.979Z,101861.06
2022-11-15T03:38:27.024Z,101863.66
2022-11-15T03:41:27.183Z,101869.75
2022-11-15T03:44:22.719Z,101869.75
2022-11-15T03:47:22.966Z,101864.53
2022-11-15T03:50:14.492Z,101864.53
2022-11-15T03:53:02.130Z,101854.09
2022-11-15T03:55:48.445Z,101864.53
2022-11-15T03:58:35.825Z,101865.38
2022-11-15T04:01:22.225Z,101857.56
2022-11-15T04:04:08.405Z,101857.56
2022-11-15T04:06:54.561Z,101857.56
2022-11-15T04:09:59.678Z,101861.06
2022-11-15T04:12:50.191Z,101850.63
2022-11-15T04:15:37.086Z,101849.75
2022-11-15T04:18:23.893Z,101842.78
2022-11-15T04:21:28.950Z,101837.53
2022-11-15T04:24:19.280Z,101834.06
2022-11-15T04:27:05.521Z,101819.31
2022-11-15T04:29:52.150Z,101808.84
2022-11-15T04:32:38.547Z,101805.38
2022-11-15T04:35:25.563Z,101799.31
2022-11-15T04:38:12.627Z,101794.94
2022-11-15T04:40:59.173Z,101794.09
2022-11-15T04:43:45.671Z,101791.50
2022-11-15T04:46:32.328Z,101791.50
2022-11-15T04:49:18.720Z,101791.50
2022-11-15T04:52:05.494Z,101792.38
2022-11-15T04:54:52.457Z,101793.25
2022-11-15T04:57:39.275Z,101800.22
2022-11-15T05:00:25.686Z,101797.59
2022-11-15T05:03:31.167Z,101805.41
2022-11-15T05:06:17.484Z,101798.47
2022-11-15T05:09:04.777Z,101792.38
2022-11-15T05:11:51.740Z,101796.72
2022-11-15T05:14:38.803Z,101794.13
2022-11-15T05:17:25.242Z,101796.69
2022-11-15T05:20:12.681Z,101791.47
2022-11-15T05:22:58.720Z,101802.78
2022-11-15T05:25:45.103Z,101804.53
2022-11-15T05:28:32.033Z,101798.38
2022-11-15T05:31:18.664Z,101807.13
2022-11-15T05:34:06.943Z,101800.13
2022-11-15T05:36:53.804Z,101808.81
2022-11-15T05:39:41.483Z,101803.63
2022-11-15T05:42:28.994Z,101800.97
2022-11-15T05:45:15.962Z,101795.78
2022-11-15T05:48:08.696Z,101809.69
2022-11-15T05:50:54.864Z,101804.44
2022-11-15T05:53:41.615Z,101808.78
2022-11-15T05:56:28.309Z,101814.91
2022-11-15T05:59:15.098Z,101807.94
2022-11-15T06:02:01.794Z,101801.03
2022-11-15T06:04:48.100Z,101814.03
2022-11-15T06:07:34.969Z,101800.97
2022-11-15T06:10:21.222Z,101808.81
2022-11-15T06:13:08.802Z,101803.53
2022-11-15T06:15:57.944Z,101807.91
2022-11-15T06:18:44.381Z,101813.13
2022-11-15T06:21:30.505Z,101813.97
2022-11-15T06:24:17.270Z,101823.47
2022-11-15T06:27:03.426Z,101814.75
2022-11-15T06:29:50.316Z,101804.28
2022-11-15T06:32:36.765Z,101795.56
2022-11-15T06:35:22.957Z,101797.22
2022-11-15T06:38:11.908Z,101797.22
2022-11-15T06:41:06.561Z,101812.84
2022-11-15T06:43:53.025Z,101799.78
2022-11-15T06:46:39.513Z,101790.06
2022-11-15T06:49:25.897Z,101803.94
2022-11-15T06:52:12.267Z,101810.81
2022-11-15T06:54:58.852Z,101802.00
2022-11-15T06:57:50.450Z,101799.19
2022-11-15T07:00:36.640Z,101800.06
2022-11-15T07:03:22.747Z,101797.47
2022-11-15T07:06:10.154Z,101794.81
2022-11-15T07:08:57.710Z,101780.81
2022-11-15T07:11:43.943Z,101773.75
2022-11-15T07:14:30.683Z,101783.38
2022-11-15T07:17:17.148Z,101776.38
2022-11-15T07:20:04.604Z,101769.38
2022-11-15T07:22:50.748Z,101778.69
2022-11-15T07:25:40.777Z,101769.81
2022-11-15T07:28:28.835Z,101764.31
2022-11-15T07:31:15.177Z,101757.19
2022-11-15T07:34:03.217Z,101762.56
2022-11-15T07:36:50.072Z,101756.34
2022-11-15T07:39:37.764Z,101743.28
2022-11-15T07:42:42.830Z,101742.28
2022-11-15T07:45:28.929Z,101726.75
2022-11-15T07:48:22.587Z,101728.34
2022-11-15T07:51:31.315Z,101737.94
2022-11-15T07:54:27.857Z,101717.09
2022-11-15T07:57:14.604Z,101727.94
2022-11-15T08:00:01.202Z,101722.53
2022-11-15T08:02:47.559Z,101720.06
2022-11-15T08:05:36.074Z,101715.69
2022-11-15T08:08:22.283Z,101721.03
2022-11-15T08:11:09.713Z,101715.09
2022-11-15T08:13:56.153Z,101712.19
2022-11-15T08:16:42.983Z,101712.22
2022-11-15T08:19:30.189Z,101710.38
2022-11-15T08:22:18.739Z,101714.41
2022-11-15T08:25:06.577Z,101701.91
2022-11-15T08:27:54.378Z,101702.69
2022-11-15T08:30:43.700Z,101697.28
2022-11-15T08:33:30.818Z,101694.59
2022-11-15T08:36:18.398Z,101711.03
2022-11-15T08:39:04.653Z,101720.66
2022-11-15T08:41:51.487Z,101702.22
2022-11-15T08:44:37.740Z,101711.56
2022-11-15T08:47:24.584Z,101705.44
2022-11-15T08:50:10.960Z,101690.31
2022-11-15T08:52:57.368Z,101691.09
2022-11-15T08:55:43.938Z,101681.88
2022-11-15T08:58:30.606Z,101664.94
2022-11-15T09:01:19.948Z,101667.06
2022-11-15T09:04:06.346Z,101668.91
2022-11-15T09:06:53.349Z,101660.16
2022-11-15T09:09:39.587Z,101648.22
2022-11-15T09:12:26.727Z,101647.38
2022-11-15T09:15:13.237Z,101642.47
2022-11-15T09:18:00.468Z,101635.47
2022-11-15T09:20:46.805Z,101629.28
2022-11-15T09:23:33.590Z,101626.44
2022-11-15T09:26:20.455Z,101621.56
2022-11-15T09:29:06.527Z,101606.00
2022-11-15T09:31:55.928Z,101609.81
2022-11-15T09:34:46.575Z,101604.34
2022-11-15T09:37:34.037Z,101591.72
2022-11-15T09:40:21.569Z,101590.81
2022-11-15T09:43:30.011Z,101588.91
2022-11-15T09:46:50.373Z,101590.91
2022-11-15T09:49:44.292Z,101580.69
2022-11-15T09:52:24.500Z,101581.59
2022-11-15T09:54:55.622Z,101576.34
2022-11-15T09:57:23.807Z,101565.44
2022-11-15T10:00:46.927Z,101557.09
2022-11-15T10:03:26.132Z,101562.88
2022-11-15T10:05:58.673Z,101557.06
2022-11-15T10:08:56.309Z,101556.03
2022-11-15T10:11:42.480Z,101552.22
2022-11-15T10:14:15.502Z,101557.38
2022-11-15T10:16:52.699Z,101562.59
2022-11-15T10:19:38.859Z,101561.66
2022-11-15T10:22:13.575Z,101560.25
2022-11-15T10:24:45.277Z,101551.63
2022-11-15T10:27:18.125Z,101544.22
2022-11-15T10:29:50.519Z,101543.84
2022-11-15T10:32:21.751Z,101546.25
2022-11-15T10:34:51.485Z,101541.81
2022-11-15T10:37:30.654Z,101517.69
2022-11-15T10:40:06.059Z,101518.22
2022-11-15T10:42:34.978Z,101513.38
2022-11-15T10:45:24.542Z,101523.31
2022-11-15T10:47:52.333Z,101511.16
2022-11-15T10:50:33.671Z,101507.78
2022-11-15T10:53:03.945Z,101516.22
2022-11-15T10:55:35.225Z,101501.38
2022-11-15T10:58:21.280Z,101500.88
2022-11-15T11:00:50.383Z,101490.69
2022-11-15T11:04:04.123Z,101489.66
2022-11-15T11:06:52.679Z,101484.97
2022-11-15T11:09:28.374Z,101481.63
2022-11-15T11:11:56.447Z,101478.16
2022-11-15T11:14:33.807Z,101470.41
2022-11-15T11:17:34.814Z,101465.75
2022-11-15T11:20:37.409Z,101463.75
2022-11-15T11:23:20.706Z,101465.25
2022-11-15T11:26:13.275Z,101465.13
2022-11-15T11:28:51.890Z,101460.41
2022-11-15T11:31:49.187Z,101463.22
2022-11-15T11:34:18.857Z,101460.44
2022-11-15T11:37:12.476Z,101463.34
2022-11-15T11:40:14.193Z,101451.97
2022-11-15T11:43:10.595Z,101453.13
2022-11-15T11:45:53.326Z,101453.50
2022-11-15T11:48:45.884Z,101442.00
2022-11-15T11:51:21.273Z,101434.09
2022-11-15T11:53:57.550Z,101434.16
2022-11-15T11:56:37.912Z,101426.69
2022-11-15T11:59:37.624Z,101416.22
2022-11-15T12:02:21.819Z,101420.19
2022-11-15T12:04:54.399Z,101416.44
2022-11-15T12:07:29.928Z,101423.00
2022-11-15T12:10:15.411Z,101407.72
2022-11-15T12:13:25.511Z,101407.22
2022-11-15T12:16:25.841Z,101403.03
2022-11-15T12:18:55.799Z,101399.41
2022-11-15T12:21:28.769Z,101404.50
2022-11-15T12:24:05.345Z,101403.34
2022-11-15T12:26:40.565Z,101395.72
2022-11-15T12:32:38.955Z,101383.47
2022-11-15T12:35:41.233Z,101387.69
2022-11-15T12:38:13.708Z,101378.63
2022-11-15T12:41:18.412Z,101383.16
2022-11-15T12:43:47.963Z,101362.78
2022-11-15T12:46:31.035Z,101353.31
2022-11-15T12:49:01.655Z,101345.13
2022-11-15T12:51:44.471Z,101336.31
2022-11-15T12:54:23.929Z,101343.31
2022-11-15T12:57:09.457Z,101327.38
2022-11-15T13:00:05.743Z,101321.06
2022-11-15T13:02:47.550Z,101312.63
2022-11-15T13:05:21.187Z,101309.25
2022-11-15T13:07:49.069Z,101308.94
2022-11-15T13:10:16.739Z,101311.03
2022-11-15T13:12:45.598Z,101305.09
2022-11-15T13:15:13.220Z,101317.25
2022-11-15T13:17:45.157Z,101299.72
2022-11-15T13:20:15.440Z,101298.91
2022-11-15T13:23:04.923Z,101305.09
2022-11-15T13:25:38.677Z,101304.47
2022-11-15T13:28:15.038Z,101308.38
2022-11-15T13:30:56.250Z,101306.75
2022-11-15T13:33:35.709Z,101302.41
2022-11-15T13:36:08.553Z,101303.22
2022-11-15T13:38:39.646Z,101303.38
2022-11-15T13:41:25.509Z,101298.19
2022-11-15T13:43:55.149Z,101298.59
2022-11-15T13:46:42.890Z,101291.63
2022-11-15T13:49:14.073Z,101291.63
2022-11-15T13:51:51.503Z,101284.88
2022-11-15T13:54:29.349Z,101290.97
2022-11-15T13:57:04.046Z,101280.66
2022-11-15T13:59:34.501Z,101282.31
2022-11-15T14:02:13.723Z,101286.00
2022-11-15T14:04:52.702Z,101275.50
2022-11-15T14:07:24.264Z,101281.69
2022-11-15T14:09:52.674Z,101282.59
2022-11-15T14:12:34.189Z,101276.75
2022-11-15T14:15:29.375Z,101268.94
2022-11-15T14:17:57.619Z,101261.22
2022-11-15T14:20:39.453Z,101266.41
2022-11-15T14:23:25.927Z,101270.19
2022-11-15T14:25:55.673Z,101268.59
2022-11-15T14:28:24.140Z,101271.16
2022-11-15T14:30:57.369Z,101262.56
2022-11-15T14:33:36.599Z,101255.47
2022-11-15T14:36:18.663Z,101253.16
2022-11-15T14:38:47.436Z,101263.56
2022-11-15T14:41:27.519Z,101258.63
2022-11-15T14:43:55.596Z,101249.72
2022-11-15T14:46:23.155Z,101249.72
2022-11-15T14:48:51.256Z,101237.78
2022-11-15T14:51:20.009Z,101237.84
2022-11-15T14:53:49.301Z,101231.00
2022-11-15T14:56:17.787Z,101231.13
2022-11-15T14:58:45.883Z,101240.84
2022-11-15T15:01:34.751Z,101240.19
2022-11-15T15:04:02.643Z,101221.91
2022-11-15T15:06:31.775Z,101214.97
2022-11-15T15:08:59.729Z,101222.84
2022-11-15T15:11:29.902Z,101219.56
2022-11-15T15:14:01.442Z,101215.09
2022-11-15T15:16:30.720Z,101209.81
2022-11-15T15:18:58.451Z,101211.69
2022-11-15T15:21:32.335Z,101213.41
2022-11-15T15:24:04.584Z,101199.47
2022-11-15T15:26:37.381Z,101196.03
2022-11-15T15:29:05.279Z,101197.75
2022-11-15T15:31:34.161Z,101189.03
2022-11-15T15:34:02.347Z,101190.81
2022-11-15T15:36:31.369Z,101189.88
2022-11-15T15:38:59.036Z,101187.41
2022-11-15T15:41:28.522Z,101181.31
2022-11-15T15:43:56.304Z,101172.69
2022-11-15T15:46:23.816Z,101178.66
2022-11-15T15:48:51.483Z,101165.56
2022-11-15T15:51:20.698Z,101164.78
2022-11-15T15:53:49.491Z,101157.81
2022-11-15T15:56:17.130Z,101150.84
2022-11-15T15:58:44.770Z,101153.38
2022-11-15T16:01:12.385Z,101140.38
2022-11-15T16:03:40.067Z,101141.38
2022-11-15T16:06:35.279Z,101144.06
2022-11-15T16:09:19.862Z,101149.34
2022-11-15T16:11:48.434Z,101136.94
2022-11-15T16:14:16.137Z,101138.44
2022-11-15T16:16:45.650Z,101126.28
2022-11-15T16:19:13.583Z,101121.09
2022-11-15T16:21:41.440Z,101122.97
2022-11-15T16:25:13.791Z,101119.47
2022-11-15T16:27:47.255Z,101114.25
2022-11-15T16:30:18.075Z,101106.31
2022-11-15T16:32:46.219Z,101106.25
2022-11-15T16:35:15.984Z,101096.41
2022-11-15T16:37:46.010Z,101092.19
2022-11-15T16:40:25.347Z,101093.91
2022-11-15T16:42:53.155Z,101087.81
2022-11-15T16:45:20.819Z,101078.16
2022-11-15T16:47:48.547Z,101072.91
2022-11-15T16:50:25.704Z,101081.69
2022-11-15T16:52:58.515Z,101073.06
2022-11-15T16:55:28.749Z,101076.44
2022-11-15T16:58:01.890Z,101074.84
2022-11-15T17:00:29.891Z,101068.56
2022-11-15T17:02:59.005Z,101072.16
2022-11-15T17:05:27.930Z,101069.75
2022-11-15T17:07:55.846Z,101068.03
2022-11-15T17:10:26.702Z,101065.31
2022-11-15T17:12:56.301Z,101056.31
2022-11-15T17:15:24.837Z,101062.56
2022-11-15T17:17:54.178Z,101051.22
2022-11-15T17:20:24.410Z,101046.91
2022-11-15T17:22:53.089Z,101050.31
2022-11-15T17:25:21.042Z,101040.59
2022-11-15T17:27:48.647Z,101039.72
2022-11-15T17:30:16.886Z,101039.66
2022-11-15T17:32:44.880Z,101052.72
2022-11-15T17:35:15.680Z,101045.75
2022-11-15T17:37:44.613Z,101047.53
2022-11-15T17:40:12.629Z,101050.91
2022-11-15T17:42:42.454Z,101042.28
2022-11-15T17:45:11.480Z,101047.47
2022-11-15T17:47:39.711Z,101051.75
2022-11-15T17:50:07.532Z,101035.28
2022-11-15T17:52:38.650Z,101036.13
2022-11-15T17:55:06.769Z,101031.84
2022-11-15T17:57:34.927Z,101026.75
2022-11-15T18:00:02.757Z,101027.63
2022-11-15T18:02:31.760Z,101030.09
2022-11-15T18:04:59.314Z,101022.44
2022-11-15T18:07:26.903Z,101026.97
2022-11-15T18:09:54.815Z,101026.06
2022-11-15T18:12:22.401Z,101018.31
2022-11-15T18:14:51.610Z,101024.53
2022-11-15T18:17:20.805Z,101017.59
2022-11-15T18:19:49.097Z,101020.47
2022-11-15T18:22:18.568Z,101010.84
2022-11-15T18:24:47.139Z,101006.63
2022-11-15T18:27:15.502Z,101007.59
2022-11-15T18:29:44.865Z,101011.19
2022-11-15T18:32:18.781Z,101007.06
2022-11-15T18:34:46.643Z,101006.94
2022-11-15T18:37:15.308Z,101009.63
2022-11-15T18:39:43.680Z,101011.47
2022-11-15T18:42:11.280Z,101001.31
2022-11-15T18:44:39.241Z,101014.31
2022-11-15T18:47:06.890Z,101007.31
2022-11-15T18:49:34.586Z,101015.97
2022-11-15T18:52:02.230Z,101010.78
2022-11-15T18:54:31.612Z,101009.50
2022-11-15T18:56:59.961Z,101011.13
2022-11-15T18:59:27.963Z,101008.78
2022-11-15T19:01:57.003Z,101001.81
2022-11-15T19:04:24.922Z,101006.22
2022-11-15T19:06:53.707Z,101003.47
2022-11-15T19:09:21.412Z,101007.78
2022-11-15T19:11:51.623Z,101005.81
2022-11-15T19:14:24.412Z,101007.94
2022-11-15T19:16:52.931Z,101013.91
2022-11-15T19:19:25.821Z,101010.44
2022-11-15T19:21:54.873Z,101005.91
2022-11-15T19:24:27.299Z,101003.22
2022-11-15T19:26:55.162Z,101005.06
2022-11-15T19:29:22.911Z,100997.28
2022-11-15T19:31:50.660Z,100998.25
2022-11-15T19:34:18.327Z,100992.16
2022-11-15T19:36:46.809Z,100993.75
2022-11-15T19:39:15.456Z,100984.19
2022-11-15T19:41:47.365Z,100986.66
2022-11-15T19:44:15.395Z,100981.41
2022-11-15T19:46:44.359Z,100961.22
2022-11-15T19:49:12.263Z,100979.53
2022-11-15T19:51:42.634Z,100977.63
2022-11-15T19:54:10.857Z,100978.47
2022-11-15T19:56:39.952Z,100972.22
2022-11-15T19:59:09.012Z,100967.63
2022-11-15T20:01:38.993Z,100961.53
2022-11-15T20:04:10.036Z,100958.06
2022-11-15T20:06:41.763Z,100957.25
2022-11-15T20:09:14.130Z,100951.03
2022-11-15T20:11:42.149Z,100951.91
2022-11-15T20:14:11.739Z,100942.09
2022-11-15T20:16:39.663Z,100949.28
2022-11-15T20:19:08.606Z,100931.78
2022-11-15T20:21:36.330Z,100931.94
2022-11-15T20:24:05.138Z,100922.16
2022-11-15T20:26:33.030Z,100928.25
2022-11-15T20:29:04.070Z,100924.72
2022-11-15T20:31:32.390Z,100929.97
2022-11-15T20:34:00.403Z,100938.75
2022-11-15T20:36:28.491Z,100934.53
2022-11-15T20:38:59.786Z,100923.88
2022-11-15T20:41:28.112Z,100920.56
2022-11-15T20:43:56.435Z,100924.03
2022-11-15T20:46:24.299Z,100914.41
2022-11-15T20:48:52.193Z,100910.88
2022-11-15T20:51:20.560Z,100917.75
2022-11-15T20:53:48.877Z,100909.94
2022-11-15T20:56:20.255Z,100903.94
2022-11-15T20:58:50.536Z,100912.69
2022-11-15T21:01:57.342Z,100903.81
2022-11-15T21:04:25.086Z,100903.47
2022-11-15T21:06:53.003Z,100906.16
2022-11-15T21:09:39.299Z,100911.31
2022-11-15T21:12:11.504Z,100900.91
2022-11-15T21:14:40.595Z,100895.63
2022-11-15T21:17:10.576Z,100895.75
2022-11-15T21:19:38.399Z,100894.81
2022-11-15T21:22:07.122Z,100893.84
2022-11-15T21:24:35.421Z,100880.03
2022-11-15T21:27:03.000Z,100876.47
2022-11-15T21:29:40.156Z,100868.81
2022-11-15T21:32:09.836Z,100865.97
2022-11-15T21:34:37.818Z,100856.09
2022-11-15T21:37:05.377Z,100857.13
2022-11-15T21:39:33.114Z,100849.06
2022-11-15T21:42:00.675Z,100859.63
2022-11-15T21:44:28.781Z,100838.03
2022-11-15T21:46:56.337Z,100846.88
2022-11-15T21:49:24.068Z,100838.97
2022-11-15T21:51:51.611Z,100840.47
2022-11-15T21:54:19.256Z,100835.25
2022-11-15T21:56:46.854Z,100834.28
2022-11-15T21:59:15.857Z,100817.75
2022-11-15T22:02:01.964Z,100826.34
2022-11-15T22:04:29.769Z,100817.75
2022-11-15T22:06:57.859Z,100815.25
2022-11-15T22:09:25.581Z,100809.81
2022-11-15T22:11:53.291Z,100810.63
2022-11-15T22:14:20.987Z,100813.22
2022-11-15T22:16:48.567Z,100793.00
2022-11-15T22:19:18.436Z,100793.97
2022-11-15T22:21:49.011Z,100798.91
2022-11-15T22:24:16.797Z,100782.38
2022-11-15T22:26:44.628Z,100777.84
2022-11-15T22:29:12.286Z,100776.97
2022-11-15T22:31:39.973Z,100772.63
2022-11-15T22:34:07.763Z,100766.53
2022-11-15T22:36:52.217Z,100765.72
2022-11-15T22:39:20.447Z,100753.59
2022-11-15T22:41:48.079Z,100761.22
2022-11-15T22:44:15.774Z,100762.97
2022-11-15T22:46:43.518Z,100754.19
2022-11-15T22:49:11.226Z,100749.03
2022-11-15T22:51:40.611Z,100747.31
2022-11-15T22:54:08.714Z,100741.34
2022-11-15T22:56:37.125Z,100734.00
2022-11-15T22:59:04.835Z,100731.69
2022-11-15T23:01:32.696Z,100717.63
2022-11-15T23:04:00.654Z,100725.59
2022-11-15T23:06:29.073Z,100721.00
2022-11-15T23:08:56.962Z,100714.91
2022-11-15T23:11:44.180Z,100709.94
2022-11-15T23:14:13.434Z,100709.00
2022-11-15T23:16:41.175Z,100700.06
2022-11-15T23:19:10.936Z,100706.13
2022-11-15T23:22:02.076Z,100705.97
2022-11-15T23:24:31.418Z,100696.84
2022-11-15T23:27:01.674Z,100694.13
2022-11-15T23:29:30.847Z,100695.72
2022-11-15T23:32:17.289Z,100691.34
2022-11-15T23:34:46.204Z,100688.56
2022-11-15T23:37:15.715Z,100678.09
2022-11-15T23:39:44.246Z,100687.78
2022-11-15T23:42:20.092Z,100680.56
2022-11-15T23:44:50.833Z,100679.78
2022-11-15T23:47:19.652Z,100682.47
2022-11-15T23:49:47.477Z,100670.22
2022-11-15T23:52:16.256Z,100674.34
2022-11-15T23:54:44.567Z,100669.03
2022-11-15T23:57:12.625Z,100663.16
2022-11-15T23:59:45.096Z,100651.66
